Dunlow, WV (25511)

02:21 PM EST del 27 novembre 2014 (GMT -0500)
Near Salt Rock Elementary School | Change Station
CLOSE
Current Station
Stazione meteo personale
Location: Salt Rock, WV
Altitudine: 627 ft
Stazioni meteo nelle vicinanze

Alt. 627 ft 38.32 °N, 82.23 °W | Updated 56 seconds ago

Coperto
Coperto
36.3 °F
Sembra 36 °F
N
2.0
Vento Variabile Vento da ESE
Gusts 6.0 mph

Oggi
Massima -- | Minima -- °F
--% Possibilità di precip.
Ieri
Massima -- | Minima -- °F
Precip. -- in
7:22 AM 5:11 PM
Luna crescente, 32% visible
Pressione 30.24 in
Visibilità 10.0 miglia
Nuvole Coperto 2100 ft
Raffreddamento del vento 36 °F
Punto di rugiada 27 °F
Umidità 70%
Piovosità 0.00 in
Spessore del manto nevoso Non disponibile.
Raggi UV 1 fuori da 12
Polline .10 fuori da 12
Qualità dell'aria Non disponibile.
Flu Activity Non disponibile.
METAR KSJS 271915Z AUTO 31007KT 280V350 10SM OVC021 00/M04 A3024 RMK AO2 T00001040

More Conditions Fewer Conditions

Pressione 30.24 in
Visibilità 10.0 miglia
Nuvole Coperto 2100 ft
Raffreddamento del vento 36 °F
Punto di rugiada 27 °F
Umidità 70%
Piovosità 0.00 in
Spessore del manto nevoso Non disponibile.
Raggi UV 1 fuori da 12
Polline .10 fuori da 12
Qualità dell'aria Non disponibile.
Flu Activity Non disponibile.
METAR KSJS 271915Z AUTO 31007KT 280V350 10SM OVC021 00/M04 A3024 RMK AO2 T00001040

More Conditions Fewer Conditions

10-Day Weather Forecast

Almanac

Astronomia

Nov. 27, 2014 Alba Tramonto
Ora attuale
Crepuscolo civile
Crepuscolo nautico
Crepuscolo astronomico
Luna
Estensione della luce visibile
Lunghezza del giorno
Tomorrow will be .
, % of the Moon is Illuminated

Gli estremi di oggi

State Highs State Lows

Community

WunderPhotos

Upload Photos

1,774,092 foto caricate!

WunderBlogs® & News

Nearby

Qualità dell'aria

  Qualità dell'aria Indice AQ Inquinante
Not available.

Profondità neve

Stazione Profondità Altitudine

Attività sismica

Città  Distanza Mag. Data & Ora
Minimo Magnitudo Mostrato è 2.5.

Temperature delle acque costiere

Località Temperatura

Stazioni meteo nelle vicinanze